Time;durP1;ratioP1;P1;durP2;ratioP2;P2;SDS_P1;SDS_P2;PMS_P1;PMS_P2;Temp;Humidity;BMP_temperature;BMP_pressure;BME280_temperature;BME280_humidity;BME280_pressure;Samples;Min_cycle;Max_cycle;Signal;HPM_P1;HPM_P2
2021/12/17 00:00:28;;;;;;;275.00;47.97;;;9.10;99.90;;;;;;5052321;28;20445;-75
2021/12/17 00:03:11;;;;;;;126.60;34.03;;;9.10;99.90;;;;;;5052041;28;20481;-76
2021/12/17 00:06:03;;;;;;;190.67;40.27;;;9.10;99.90;;;;;;5051908;28;20465;-75
2021/12/17 00:08:32;;;;;;;132.90;32.60;;;9.10;99.90;;;;;;5032128;28;20443;-75
2021/12/17 00:11:01;;;;;;;170.83;34.63;;;9.10;99.90;;;;;;5039013;28;21032;-75
2021/12/17 00:13:31;;;;;;;165.83;40.47;;;9.10;99.90;;;;;;5035403;28;20921;-76
2021/12/17 00:16:00;;;;;;;269.87;36.93;;;9.10;99.90;;;;;;5053015;28;20828;-76
2021/12/17 00:18:36;;;;;;;298.47;51.90;;;9.10;99.90;;;;;;5035870;28;20449;-75
2021/12/17 00:48:37;;;;;;;151.03;25.37;;;9.00;99.90;;;;;;5032562;28;20559;-76
2021/12/17 00:54:20;;;;;;;253.00;45.27;;;9.00;99.90;;;;;;5014167;28;20545;-76
2021/12/17 00:56:50;;;;;;;200.10;33.27;;;9.00;99.90;;;;;;5045922;28;20800;-76
2021/12/17 00:59:18;;;;;;;190.37;34.23;;;8.90;99.90;;;;;;5051368;28;20639;-75
2021/12/17 01:01:47;;;;;;;177.53;37.97;;;8.90;99.90;;;;;;5068172;28;20464;-76
2021/12/17 01:04:17;;;;;;;172.37;33.97;;;9.00;99.90;;;;;;5051869;28;20512;-75
2021/12/17 01:06:46;;;;;;;214.87;34.73;;;9.00;99.90;;;;;;5051072;28;20484;-75
2021/12/17 01:09:21;;;;;;;118.77;34.20;;;8.90;99.90;;;;;;5051299;28;20445;-75
2021/12/17 01:11:50;;;;;;;198.73;38.20;;;8.90;99.90;;;;;;5051330;28;20445;-75
2021/12/17 01:14:40;;;;;;;174.90;28.77;;;8.90;99.90;;;;;;5031420;28;20450;-75
2021/12/17 01:17:43;;;;;;;162.03;39.27;;;9.00;99.90;;;;;;5043766;28;20888;-75
2021/12/17 01:23:31;;;;;;;235.17;41.40;;;8.90;99.90;;;;;;5044322;28;20474;-75
2021/12/17 01:35:46;;;;;;;199.20;39.20;;;8.90;99.90;;;;;;5022689;28;20805;-75
2021/12/17 01:44:05;;;;;;;180.23;33.83;;;8.90;99.90;;;;;;5034110;28;20473;-75
2021/12/17 01:46:38;;;;;;;191.70;40.33;;;8.90;99.90;;;;;;5038935;28;20475;-75
2021/12/17 01:49:24;;;;;;;192.90;30.27;;;8.80;99.90;;;;;;5038490;28;20817;-76
2021/12/17 02:00:23;;;;;;;284.10;41.47;;;8.80;99.90;;;;;;5038350;28;20457;-75
2021/12/17 02:02:55;;;;;;;203.83;39.67;;;8.80;99.90;;;;;;5054874;28;20436;-75
2021/12/17 02:05:32;;;;;;;137.57;30.97;;;8.80;99.90;;;;;;5048774;28;20971;-75
2021/12/17 02:08:01;;;;;;;145.97;28.60;;;8.80;99.90;;;;;;5054435;28;20835;-75
2021/12/17 02:30:15;;;;;;;155.20;22.00;;;8.70;99.90;;;;;;5033983;28;20476;-75
2021/12/17 02:32:46;;;;;;;190.50;33.73;;;8.60;99.90;;;;;;5053769;28;20448;-75
2021/12/17 02:38:10;;;;;;;155.53;29.87;;;8.60;99.90;;;;;;5050482;28;20986;-75
2021/12/17 02:47:09;;;;;;;181.53;30.77;;;8.60;99.90;;;;;;5053552;28;20465;-75
2021/12/17 02:49:39;;;;;;;90.00;20.30;;;8.60;99.90;;;;;;5053494;28;20452;-75
2021/12/17 02:52:09;;;;;;;157.47;26.60;;;8.60;99.90;;;;;;5054269;28;20461;-76
2021/12/17 02:54:39;;;;;;;128.50;16.93;;;8.50;99.90;;;;;;5054403;28;20857;-75
2021/12/17 02:57:10;;;;;;;219.83;29.90;;;8.60;99.90;;;;;;5054549;28;20504;-75
2021/12/17 02:59:39;;;;;;;130.30;22.20;;;8.60;99.90;;;;;;5053937;28;20452;-75
2021/12/17 03:02:09;;;;;;;159.97;22.23;;;8.60;99.90;;;;;;5051102;28;20441;-75
2021/12/17 03:04:42;;;;;;;180.83;26.70;;;8.50;99.90;;;;;;5054522;28;20468;-75
2021/12/17 03:07:12;;;;;;;146.83;22.90;;;8.60;99.90;;;;;;5054682;28;20519;-75
2021/12/17 03:10:01;;;;;;;120.63;17.93;;;8.60;99.90;;;;;;5036700;28;20532;-76
2021/12/17 03:12:34;;;;;;;109.40;22.53;;;8.60;99.90;;;;;;5053205;28;20966;-76
2021/12/17 03:15:10;;;;;;;113.20;29.20;;;8.60;99.90;;;;;;5036430;28;20441;-75
2021/12/17 03:18:03;;;;;;;276.50;44.07;;;8.50;99.90;;;;;;5052602;28;20527;-75
2021/12/17 03:23:28;;;;;;;161.80;21.70;;;8.50;99.90;;;;;;5053500;28;20434;-75
2021/12/17 03:26:01;;;;;;;162.60;19.37;;;8.40;99.90;;;;;;5045415;28;20461;-75
2021/12/17 03:28:30;;;;;;;154.27;20.10;;;8.40;99.90;;;;;;5043030;28;20468;-75
2021/12/17 03:30:59;;;;;;;140.13;19.60;;;8.40;99.90;;;;;;5052799;28;20442;-76
2021/12/17 03:33:28;;;;;;;169.87;24.13;;;8.40;99.90;;;;;;5052919;28;20450;-75
2021/12/17 03:35:58;;;;;;;96.63;16.40;;;8.40;99.90;;;;;;5052901;28;20445;-76
2021/12/17 03:38:26;;;;;;;115.73;24.83;;;8.40;99.90;;;;;;5052703;28;20465;-77
2021/12/17 03:41:08;;;;;;;70.80;25.73;;;8.40;99.90;;;;;;5047855;28;20468;-76
2021/12/17 03:43:45;;;;;;;162.27;30.53;;;8.40;99.90;;;;;;5036391;28;20470;-76
2021/12/17 03:46:13;;;;;;;64.30;14.20;;;8.40;99.90;;;;;;5052679;28;20472;-76
2021/12/17 03:48:43;;;;;;;201.87;33.40;;;8.40;99.90;;;;;;5053107;28;20453;-76
2021/12/17 03:51:14;;;;;;;124.87;34.13;;;8.40;99.90;;;;;;5035824;28;20863;-75
2021/12/17 03:53:49;;;;;;;157.97;27.17;;;8.40;99.90;;;;;;5052352;28;20444;-75
2021/12/17 03:56:17;;;;;;;144.83;20.10;;;8.40;99.90;;;;;;5051352;28;20522;-75
2021/12/17 03:58:50;;;;;;;62.30;12.07;;;8.40;99.90;;;;;;5052170;28;20459;-75
2021/12/17 04:01:20;;;;;;;104.33;18.53;;;8.40;99.90;;;;;;5035805;28;20445;-75
2021/12/17 04:03:49;;;;;;;249.73;30.50;;;8.40;99.90;;;;;;5038304;28;20472;-75
2021/12/17 04:06:26;;;;;;;256.50;27.77;;;8.30;99.90;;;;;;5052010;28;21010;-75
2021/12/17 04:09:13;;;;;;;225.40;29.53;;;8.40;99.90;;;;;;5053964;28;20935;-75
2021/12/17 04:11:49;;;;;;;206.23;24.50;;;8.30;99.90;;;;;;5052033;28;20820;-75
2021/12/17 04:14:34;;;;;;;193.07;21.13;;;8.30;99.90;;;;;;5052298;28;20448;-75
2021/12/17 04:17:05;;;;;;;226.40;35.03;;;8.30;99.90;;;;;;5048459;28;20481;-76
2021/12/17 04:19:35;;;;;;;172.63;19.23;;;8.30;99.90;;;;;;5051960;28;20469;-75
2021/12/17 04:22:04;;;;;;;89.27;14.17;;;8.30;99.90;;;;;;5053748;28;20465;-75
2021/12/17 04:24:33;;;;;;;96.67;19.80;;;8.30;99.90;;;;;;5032028;28;20549;-75
2021/12/17 04:27:01;;;;;;;279.83;35.43;;;8.30;99.90;;;;;;5038477;28;20480;-76
2021/12/17 04:29:32;;;;;;;177.47;21.77;;;8.30;99.90;;;;;;5035500;28;20458;-75
2021/12/17 04:32:02;;;;;;;169.20;32.27;;;8.30;99.90;;;;;;5035225;28;20793;-76
2021/12/17 04:34:34;;;;;;;162.20;21.97;;;8.30;99.90;;;;;;5035269;28;20447;-76
2021/12/17 04:37:05;;;;;;;198.07;23.53;;;8.30;99.90;;;;;;5035160;28;20470;-76
2021/12/17 04:39:52;;;;;;;103.47;24.03;;;8.30;99.90;;;;;;5035247;28;20504;-76
2021/12/17 04:42:32;;;;;;;75.20;15.77;;;8.30;99.90;;;;;;5051744;28;20641;-75
2021/12/17 04:45:03;;;;;;;166.57;30.60;;;8.30;99.90;;;;;;5052252;28;20469;-75
2021/12/17 04:58:45;;;;;;;230.10;34.43;;;8.30;99.90;;;;;;5046338;28;20470;-75
2021/12/17 05:01:16;;;;;;;206.13;31.43;;;8.40;99.90;;;;;;5051610;28;20452;-76
2021/12/17 05:03:47;;;;;;;165.93;25.43;;;8.40;99.90;;;;;;5034938;28;20820;-76
2021/12/17 05:06:18;;;;;;;274.17;29.10;;;8.30;99.90;;;;;;5035788;28;20496;-76
2021/12/17 05:08:59;;;;;;;162.13;18.10;;;8.30;99.90;;;;;;5040007;28;20510;-76
2021/12/17 05:18:13;;;;;;;110.97;20.10;;;8.30;99.90;;;;;;5057061;28;20465;-76
2021/12/17 05:20:01;;;;;;;220.00;29.47;;;8.30;99.90;;;;;;5040683;28;20823;-76
2021/12/17 05:22:30;;;;;;;230.80;29.13;;;8.40;99.90;;;;;;5056057;28;20456;-75
2021/12/17 05:24:58;;;;;;;110.87;15.40;;;8.40;99.90;;;;;;5055047;28;20567;-76
2021/12/17 05:27:26;;;;;;;127.60;21.37;;;8.40;99.90;;;;;;5038439;28;20501;-76
2021/12/17 05:29:59;;;;;;;208.27;28.87;;;8.40;99.90;;;;;;5055179;28;20499;-76
2021/12/17 05:32:28;;;;;;;154.80;29.80;;;8.40;99.90;;;;;;5055061;28;20449;-76
2021/12/17 05:35:01;;;;;;;115.57;16.33;;;8.40;99.90;;;;;;5055081;28;20486;-76
2021/12/17 05:37:30;;;;;;;205.80;29.53;;;8.40;99.90;;;;;;5050393;28;20916;-76
2021/12/17 05:39:59;;;;;;;149.80;30.77;;;8.40;99.90;;;;;;5054849;28;20446;-76
2021/12/17 05:42:27;;;;;;;184.00;29.97;;;8.40;99.90;;;;;;5054796;28;20832;-76
2021/12/17 05:45:21;;;;;;;140.40;23.93;;;8.40;99.90;;;;;;5054764;28;21094;-76
2021/12/17 05:47:51;;;;;;;160.63;32.40;;;8.40;99.90;;;;;;5054831;28;20560;-76
2021/12/17 05:50:19;;;;;;;121.87;24.57;;;8.40;99.90;;;;;;5054616;28;20453;-76
2021/12/17 05:52:48;;;;;;;86.50;22.67;;;8.40;99.90;;;;;;5054655;28;20495;-76
2021/12/17 05:55:16;;;;;;;170.53;28.87;;;8.40;99.90;;;;;;5055076;28;20452;-75
2021/12/17 05:57:45;;;;;;;150.57;31.53;;;8.40;99.90;;;;;;5054771;28;20500;-75
2021/12/17 06:00:14;;;;;;;151.03;26.17;;;8.40;99.90;;;;;;5037893;28;20513;-75
2021/12/17 06:02:45;;;;;;;209.60;23.73;;;8.30;99.90;;;;;;5055755;28;20456;-75
2021/12/17 06:05:25;;;;;;;107.33;19.97;;;8.40;99.90;;;;;;5054820;28;20472;-75
2021/12/17 06:07:54;;;;;;;186.37;24.60;;;8.40;99.90;;;;;;5054961;28;20465;-76
2021/12/17 06:10:23;;;;;;;158.23;20.43;;;8.40;99.90;;;;;;5052533;28;20514;-75
2021/12/17 06:12:52;;;;;;;102.97;22.87;;;8.40;99.90;;;;;;5054093;28;20514;-75
2021/12/17 06:15:22;;;;;;;125.87;16.80;;;8.40;99.90;;;;;;5054230;28;20456;-75
2021/12/17 06:17:52;;;;;;;116.07;15.80;;;8.40;99.90;;;;;;5053169;28;20476;-75
2021/12/17 06:20:22;;;;;;;94.40;20.60;;;8.40;99.90;;;;;;5055694;28;20436;-76
2021/12/17 06:22:55;;;;;;;144.10;18.00;;;8.40;99.90;;;;;;5054837;28;20433;-76
2021/12/17 06:25:23;;;;;;;159.90;24.47;;;8.40;99.90;;;;;;5054059;28;20469;-76
2021/12/17 06:27:55;;;;;;;135.83;23.83;;;8.40;99.90;;;;;;5054746;28;20563;-76
2021/12/17 06:30:24;;;;;;;133.63;29.57;;;8.40;99.90;;;;;;5053932;28;20498;-75
2021/12/17 06:32:52;;;;;;;178.90;27.20;;;8.40;99.90;;;;;;5053913;28;20450;-75
2021/12/17 06:35:22;;;;;;;260.00;39.50;;;8.40;99.90;;;;;;5053859;28;20460;-75
2021/12/17 06:37:51;;;;;;;192.97;27.00;;;8.40;99.90;;;;;;5053826;28;20499;-75
2021/12/17 06:40:28;;;;;;;97.10;19.93;;;8.40;99.90;;;;;;5054033;28;20460;-75
2021/12/17 06:42:57;;;;;;;146.73;23.63;;;8.40;99.90;;;;;;5053705;28;20444;-76
2021/12/17 06:45:39;;;;;;;159.80;31.23;;;8.50;99.90;;;;;;5053829;28;20891;-76
2021/12/17 06:48:09;;;;;;;212.30;31.77;;;8.40;99.90;;;;;;5054070;28;21028;-76
2021/12/17 06:59:55;;;;;;;172.83;30.47;;;8.40;99.90;;;;;;5055043;28;20785;-75
2021/12/17 07:05:59;;;;;;;225.27;29.37;;;8.40;99.90;;;;;;5054441;28;20948;-75
2021/12/17 07:17:04;;;;;;;77.73;21.57;;;8.40;99.90;;;;;;5053219;28;20952;-75
2021/12/17 07:17:32;;;;;;;144.93;29.43;;;8.40;99.90;;;;;;5052988;28;21021;-75
2021/12/17 07:23:03;;;;;;;71.30;20.03;;;8.40;99.90;;;;;;5052941;28;20455;-75
2021/12/17 07:34:41;;;;;;;217.57;35.80;;;8.40;99.90;;;;;;5054296;28;20779;-75
2021/12/17 07:40:12;;;;;;;162.90;32.17;;;8.50;99.90;;;;;;5031244;28;20454;-75
2021/12/17 07:42:48;;;;;;;97.70;23.27;;;8.50;99.90;;;;;;5053716;28;20443;-75
2021/12/17 07:45:25;;;;;;;200.93;33.30;;;8.40;99.90;;;;;;5052523;28;20444;-75
2021/12/17 07:48:02;;;;;;;165.93;28.20;;;8.50;99.90;;;;;;5052437;28;20480;-75
2021/12/17 07:50:51;;;;;;;119.23;23.10;;;8.50;99.90;;;;;;5043158;28;20450;-75
2021/12/17 07:53:26;;;;;;;154.97;37.17;;;8.50;99.90;;;;;;5052508;28;20494;-75
2021/12/17 07:56:03;;;;;;;190.43;33.50;;;8.50;99.90;;;;;;5052227;28;20477;-75
2021/12/17 07:58:35;;;;;;;150.60;27.50;;;8.50;99.90;;;;;;5052344;28;20452;-75
2021/12/17 08:01:08;;;;;;;162.77;20.40;;;8.50;99.90;;;;;;5053058;28;20453;-75
2021/12/17 08:03:37;;;;;;;186.20;35.27;;;8.50;99.90;;;;;;5068862;28;20806;-75
2021/12/17 08:06:24;;;;;;;119.87;23.97;;;8.50;99.90;;;;;;5053397;28;20481;-75
2021/12/17 08:09:06;;;;;;;202.17;34.13;;;8.50;99.90;;;;;;5069158;28;20482;-75
2021/12/17 08:11:39;;;;;;;126.47;23.63;;;8.50;99.90;;;;;;5052105;28;20822;-75
2021/12/17 08:14:12;;;;;;;150.17;33.10;;;8.50;99.90;;;;;;5068841;28;20454;-75
2021/12/17 08:16:49;;;;;;;195.50;29.97;;;8.50;99.90;;;;;;5052168;28;20473;-75
2021/12/17 08:24:58;;;;;;;132.63;24.47;;;8.50;99.90;;;;;;5051967;28;20445;-74
2021/12/17 08:27:44;;;;;;;100.03;21.03;;;8.50;99.90;;;;;;5052021;28;20499;-74
2021/12/17 08:30:25;;;;;;;118.20;25.37;;;8.50;99.90;;;;;;5051886;28;20443;-75
2021/12/17 08:33:00;;;;;;;194.87;37.53;;;8.50;99.90;;;;;;5052183;28;20972;-75
2021/12/17 08:35:29;;;;;;;116.10;24.83;;;8.50;99.90;;;;;;5051832;28;20825;-75
2021/12/17 08:38:05;;;;;;;142.97;22.50;;;8.50;99.90;;;;;;5051864;28;20462;-75
2021/12/17 08:40:35;;;;;;;51.03;16.77;;;8.50;99.90;;;;;;5051384;28;20444;-75
2021/12/17 08:43:05;;;;;;;146.40;32.57;;;8.50;99.90;;;;;;5051758;28;20449;-75
2021/12/17 08:45:43;;;;;;;209.43;29.20;;;8.60;99.90;;;;;;5052579;28;20437;-75
2021/12/17 08:48:44;;;;;;;167.47;31.20;;;8.60;99.90;;;;;;5052877;28;20431;-75
2021/12/17 08:51:35;;;;;;;131.47;27.97;;;8.60;99.90;;;;;;5047299;28;20952;-75
2021/12/17 08:54:05;;;;;;;132.13;26.50;;;8.60;99.90;;;;;;5051959;28;20815;-75
2021/12/17 08:56:42;;;;;;;148.50;29.97;;;8.50;99.90;;;;;;5051525;28;20485;-75
2021/12/17 08:59:13;;;;;;;129.07;27.10;;;8.60;99.90;;;;;;5051646;28;20515;-75
2021/12/17 09:02:10;;;;;;;174.53;29.27;;;8.60;99.90;;;;;;5052728;28;20955;-75
2021/12/17 09:04:46;;;;;;;206.47;32.30;;;8.60;99.90;;;;;;5052392;28;20839;-75
2021/12/17 09:07:16;;;;;;;232.67;38.20;;;8.60;99.90;;;;;;5051226;28;20484;-75
2021/12/17 09:09:47;;;;;;;124.67;28.60;;;8.60;99.90;;;;;;5051484;28;20446;-75
2021/12/17 09:12:27;;;;;;;176.40;33.73;;;8.60;99.90;;;;;;5051428;28;20492;-75
2021/12/17 09:14:57;;;;;;;135.30;23.07;;;8.60;99.90;;;;;;5051368;28;20537;-75
2021/12/17 09:18:04;;;;;;;266.43;38.97;;;8.60;99.90;;;;;;5030566;28;20465;-75
2021/12/17 09:20:43;;;;;;;177.63;34.70;;;8.60;99.90;;;;;;5014435;28;20486;-75
2021/12/17 09:23:11;;;;;;;141.10;30.00;;;8.60;99.90;;;;;;5033706;28;20454;-76
2021/12/17 09:25:41;;;;;;;169.23;31.57;;;8.60;99.90;;;;;;5051547;28;20446;-77
2021/12/17 09:28:17;;;;;;;233.27;44.10;;;8.70;99.90;;;;;;5051566;28;20481;-77
2021/12/17 09:30:47;;;;;;;256.70;36.33;;;8.60;99.90;;;;;;5052936;28;20447;-77
2021/12/17 09:33:15;;;;;;;229.07;43.87;;;8.70;99.90;;;;;;5052032;28;20453;-77
2021/12/17 09:35:45;;;;;;;233.93;42.67;;;8.70;99.90;;;;;;5051574;28;20490;-76
2021/12/17 09:38:13;;;;;;;232.73;33.63;;;8.60;99.90;;;;;;5051964;28;20472;-76
2021/12/17 09:40:41;;;;;;;238.27;37.20;;;8.70;99.90;;;;;;5052623;28;20500;-76
2021/12/17 09:43:10;;;;;;;258.33;42.50;;;8.60;99.90;;;;;;5051181;28;20454;-76
2021/12/17 09:45:38;;;;;;;225.13;38.00;;;8.70;99.90;;;;;;5051181;28;20450;-76
2021/12/17 09:48:07;;;;;;;221.77;31.37;;;8.70;99.90;;;;;;5051700;28;20613;-76
2021/12/17 09:50:35;;;;;;;293.77;38.10;;;8.70;99.90;;;;;;5051075;28;20448;-77
2021/12/17 09:53:05;;;;;;;235.80;35.37;;;8.60;99.90;;;;;;5051653;28;20461;-76
2021/12/17 09:55:33;;;;;;;132.80;19.17;;;8.60;99.90;;;;;;5055887;28;20961;-76
2021/12/17 09:58:01;;;;;;;94.60;16.40;;;8.60;99.90;;;;;;5054785;28;20476;-76
2021/12/17 10:00:29;;;;;;;193.50;26.87;;;8.60;99.90;;;;;;5054553;28;20798;-76
2021/12/17 10:03:00;;;;;;;103.63;15.63;;;8.60;99.90;;;;;;5056046;28;20440;-77
2021/12/17 10:05:31;;;;;;;131.20;16.47;;;8.60;99.90;;;;;;5055618;28;20456;-77
2021/12/17 10:08:03;;;;;;;246.13;30.67;;;8.70;99.90;;;;;;5054221;28;20486;-76
2021/12/17 10:10:38;;;;;;;157.30;21.00;;;8.60;99.90;;;;;;5054411;28;21009;-76
2021/12/17 10:13:08;;;;;;;142.43;14.80;;;8.70;99.90;;;;;;5055684;28;20512;-77
2021/12/17 10:15:39;;;;;;;153.17;21.20;;;8.70;99.90;;;;;;5054305;28;20488;-77
2021/12/17 10:18:07;;;;;;;162.20;24.87;;;8.70;99.90;;;;;;5054118;28;20911;-76
2021/12/17 10:20:40;;;;;;;162.27;25.50;;;8.60;99.90;;;;;;5054244;28;20449;-76
2021/12/17 10:23:11;;;;;;;180.87;25.70;;;8.70;99.90;;;;;;5055052;28;20532;-76
2021/12/17 10:25:44;;;;;;;273.57;33.33;;;8.60;99.90;;;;;;5054114;28;20456;-76
2021/12/17 10:28:14;;;;;;;224.20;37.07;;;8.70;99.90;;;;;;5054273;28;20907;-76
2021/12/17 10:30:44;;;;;;;264.63;28.57;;;8.70;99.90;;;;;;5054316;28;20460;-77
2021/12/17 10:33:14;;;;;;;188.60;21.73;;;8.70;99.90;;;;;;5054013;28;21035;-77
2021/12/17 10:35:46;;;;;;;47.03;13.00;;;8.70;99.90;;;;;;5070553;28;20488;-76
2021/12/17 10:38:17;;;;;;;163.83;23.67;;;8.60;99.90;;;;;;5055096;28;20464;-76
2021/12/17 10:40:51;;;;;;;150.37;25.87;;;8.70;99.90;;;;;;5053917;28;20532;-76
2021/12/17 10:43:24;;;;;;;225.97;25.97;;;8.70;99.90;;;;;;5053990;28;20452;-76
2021/12/17 10:46:01;;;;;;;158.60;22.07;;;8.70;99.90;;;;;;5055330;28;20521;-77
2021/12/17 10:48:35;;;;;;;161.43;22.97;;;8.70;99.90;;;;;;5053750;28;20534;-76
2021/12/17 10:51:17;;;;;;;179.63;31.27;;;8.70;99.90;;;;;;5055355;28;20500;-76
2021/12/17 10:53:50;;;;;;;166.20;27.30;;;8.70;99.90;;;;;;5053801;28;20896;-76
2021/12/17 10:56:21;;;;;;;143.70;26.93;;;8.70;99.90;;;;;;5055211;28;20463;-76
2021/12/17 10:58:55;;;;;;;109.13;23.40;;;8.70;99.90;;;;;;5055078;28;20434;-77
2021/12/17 11:01:33;;;;;;;203.67;25.27;;;8.70;99.90;;;;;;5053539;28;20435;-76
2021/12/17 11:04:11;;;;;;;187.93;27.97;;;8.70;99.90;;;;;;5053011;28;20453;-76
2021/12/17 11:06:49;;;;;;;253.97;30.93;;;8.70;99.90;;;;;;5053180;28;20480;-77
2021/12/17 11:09:34;;;;;;;241.10;30.70;;;8.70;99.90;;;;;;5055132;28;20449;-76
2021/12/17 11:12:31;;;;;;;195.77;22.93;;;8.70;99.90;;;;;;5054326;28;20787;-76
2021/12/17 11:15:12;;;;;;;120.87;21.33;;;8.80;99.90;;;;;;5050936;28;20556;-76
2021/12/17 11:17:42;;;;;;;258.00;31.17;;;8.70;99.90;;;;;;5053071;28;20470;-76
2021/12/17 11:20:13;;;;;;;175.40;23.37;;;8.70;99.90;;;;;;5053602;28;20441;-76
2021/12/17 11:22:43;;;;;;;136.10;23.73;;;8.70;99.90;;;;;;5053002;28;20440;-76
2021/12/17 11:25:12;;;;;;;222.47;38.47;;;8.80;99.90;;;;;;5054211;28;20923;-76
2021/12/17 11:27:42;;;;;;;211.73;32.00;;;8.80;99.90;;;;;;5053953;28;20582;-76
2021/12/17 11:30:14;;;;;;;222.00;31.80;;;8.80;99.90;;;;;;5054110;28;20489;-75
2021/12/17 11:32:47;;;;;;;179.10;26.37;;;8.80;99.90;;;;;;5054067;28;20460;-76
2021/12/17 11:35:17;;;;;;;226.10;36.37;;;8.80;99.90;;;;;;5052784;28;20437;-76
2021/12/17 11:37:49;;;;;;;192.17;41.30;;;8.70;99.90;;;;;;5054004;28;20565;-76
2021/12/17 11:40:22;;;;;;;226.43;44.83;;;8.80;99.90;;;;;;5054253;28;20781;-76
2021/12/17 11:43:16;;;;;;;238.40;31.17;;;8.80;99.90;;;;;;5052654;28;20480;-76
2021/12/17 11:45:45;;;;;;;227.30;35.83;;;8.80;99.90;;;;;;5052636;28;20935;-76
2021/12/17 11:48:19;;;;;;;137.70;37.13;;;8.80;99.90;;;;;;5053231;28;20508;-76
2021/12/17 11:51:02;;;;;;;142.97;35.40;;;8.90;99.90;;;;;;5052512;28;20528;-76
2021/12/17 11:53:33;;;;;;;244.60;44.20;;;8.80;99.90;;;;;;5053747;28;20476;-76
2021/12/17 11:56:04;;;;;;;232.83;38.90;;;8.90;99.90;;;;;;5053586;28;20439;-76
2021/12/17 11:58:53;;;;;;;258.30;36.63;;;8.90;99.90;;;;;;5053665;28;20430;-76
2021/12/17 12:01:52;;;;;;;271.77;35.57;;;8.90;99.90;;;;;;5053550;28;20504;-76
2021/12/17 12:04:43;;;;;;;141.53;28.13;;;8.90;99.90;;;;;;5053840;28;20452;-76
2021/12/17 12:07:14;;;;;;;298.73;41.00;;;8.90;99.90;;;;;;5052131;28;20583;-76
2021/12/17 12:10:00;;;;;;;284.93;51.20;;;8.90;99.90;;;;;;5052303;28;20560;-77
2021/12/17 12:12:56;;;;;;;392.47;54.97;;;9.00;99.90;;;;;;5054235;28;20861;-76
2021/12/17 12:15:36;;;;;;;215.73;49.50;;;9.00;99.90;;;;;;5051829;28;20442;-76
2021/12/17 12:18:22;;;;;;;164.83;25.63;;;9.00;99.90;;;;;;5052040;28;20446;-75
2021/12/17 12:21:02;;;;;;;399.90;64.03;;;9.00;99.90;;;;;;5053518;28;20447;-76
2021/12/17 12:23:46;;;;;;;193.03;33.77;;;9.00;99.90;;;;;;5053320;28;20645;-76
2021/12/17 12:26:33;;;;;;;202.73;35.77;;;9.00;99.90;;;;;;5053124;28;20963;-76
2021/12/17 12:29:10;;;;;;;310.70;48.17;;;9.00;99.90;;;;;;5052659;28;20542;-76
2021/12/17 12:32:17;;;;;;;230.80;41.73;;;9.00;99.90;;;;;;5051863;28;20510;-76
2021/12/17 12:34:45;;;;;;;82.97;32.50;;;9.00;99.90;;;;;;5053128;28;20973;-76
2021/12/17 12:37:24;;;;;;;258.23;42.97;;;9.00;99.90;;;;;;5051711;28;20471;-76
2021/12/17 12:40:14;;;;;;;255.00;48.60;;;9.10;99.90;;;;;;5051872;28;20831;-76
2021/12/17 12:42:56;;;;;;;214.40;31.97;;;9.10;99.90;;;;;;5051730;28;20452;-76
2021/12/17 12:45:25;;;;;;;350.17;55.43;;;9.10;99.90;;;;;;5053258;28;20889;-76
2021/12/17 12:48:00;;;;;;;301.73;43.20;;;9.10;99.90;;;;;;5068530;28;20559;-76
2021/12/17 12:50:47;;;;;;;303.77;46.07;;;9.10;99.90;;;;;;5051704;28;20485;-76
2021/12/17 12:53:27;;;;;;;273.27;44.57;;;9.10;99.90;;;;;;5052701;28;20452;-76
2021/12/17 12:55:56;;;;;;;354.73;58.67;;;9.10;99.90;;;;;;5053031;28;20550;-76
2021/12/17 12:58:27;;;;;;;141.23;25.77;;;9.10;99.90;;;;;;5051570;28;20435;-76
2021/12/17 13:01:00;;;;;;;246.73;41.93;;;9.20;99.90;;;;;;5051804;28;20434;-76
2021/12/17 13:03:34;;;;;;;367.63;51.60;;;9.20;99.90;;;;;;5051518;28;20438;-76
2021/12/17 13:06:03;;;;;;;265.67;39.27;;;9.20;99.90;;;;;;5052476;28;20555;-75
2021/12/17 13:08:33;;;;;;;339.77;39.33;;;9.20;99.90;;;;;;5052683;28;20472;-76
2021/12/17 13:11:03;;;;;;;307.47;40.57;;;9.20;99.90;;;;;;5052680;28;20473;-76
2021/12/17 13:13:39;;;;;;;291.77;50.57;;;9.20;99.90;;;;;;5053049;28;20484;-76
2021/12/17 13:16:14;;;;;;;213.37;41.97;;;9.30;99.90;;;;;;5052891;28;20520;-76
2021/12/17 13:21:41;;;;;;;189.83;34.43;;;9.30;99.90;;;;;;5051398;28;20439;-76
2021/12/17 13:24:13;;;;;;;250.30;41.50;;;9.30;99.90;;;;;;5053003;28;20422;-76
2021/12/17 13:26:44;;;;;;;250.77;37.57;;;9.30;99.90;;;;;;5051471;28;20461;-76
2021/12/17 13:29:15;;;;;;;296.27;38.93;;;9.30;99.90;;;;;;5056621;28;20456;-76
2021/12/17 13:31:47;;;;;;;229.90;35.13;;;9.30;99.90;;;;;;5055060;28;20453;-76
2021/12/17 13:34:25;;;;;;;262.33;51.43;;;9.30;99.90;;;;;;5055067;28;20476;-75
2021/12/17 13:36:57;;;;;;;275.53;41.70;;;9.30;99.90;;;;;;5056556;28;21020;-76
2021/12/17 13:39:27;;;;;;;227.67;41.77;;;9.30;99.90;;;;;;5056505;28;20909;-76
2021/12/17 13:41:55;;;;;;;269.53;38.50;;;9.30;99.90;;;;;;5054878;28;20450;-76
2021/12/17 13:44:33;;;;;;;272.03;43.67;;;9.30;99.90;;;;;;5056370;28;20867;-76
2021/12/17 13:47:14;;;;;;;192.93;24.53;;;9.30;99.90;;;;;;5054709;28;20477;-76
2021/12/17 13:49:46;;;;;;;329.27;46.93;;;9.30;99.90;;;;;;5054680;28;20465;-76
2021/12/17 13:52:14;;;;;;;356.70;57.10;;;9.30;99.90;;;;;;5054765;28;20440;-76
2021/12/17 13:54:46;;;;;;;291.37;34.97;;;9.30;99.90;;;;;;5056131;28;20440;-76
2021/12/17 13:57:16;;;;;;;237.60;39.67;;;9.30;99.90;;;;;;5055803;28;20468;-76
2021/12/17 13:59:46;;;;;;;250.73;32.37;;;9.30;99.90;;;;;;5054618;28;20437;-76
2021/12/17 14:02:16;;;;;;;155.43;37.30;;;9.30;99.90;;;;;;5054561;28;20481;-76
2021/12/17 14:05:00;;;;;;;214.17;41.60;;;9.30;99.90;;;;;;5056040;28;20777;-76
2021/12/17 14:07:30;;;;;;;265.67;33.50;;;9.30;99.90;;;;;;5054183;28;20485;-76
2021/12/17 14:10:06;;;;;;;256.50;44.10;;;9.30;99.90;;;;;;5055769;28;20524;-76
2021/12/17 14:12:39;;;;;;;184.30;25.93;;;9.30;99.90;;;;;;5054389;28;20481;-76
2021/12/17 14:15:29;;;;;;;290.13;41.57;;;9.30;99.90;;;;;;5054283;28;20442;-76
2021/12/17 14:17:59;;;;;;;207.07;39.30;;;9.30;99.90;;;;;;5056042;28;20458;-76
2021/12/17 14:20:38;;;;;;;345.40;41.07;;;9.30;99.90;;;;;;5054207;28;20515;-76
2021/12/17 14:23:09;;;;;;;212.87;34.17;;;9.30;99.90;;;;;;5055532;28;20429;-76
2021/12/17 14:25:39;;;;;;;169.10;27.87;;;9.30;99.90;;;;;;5055670;28;20427;-76
2021/12/17 14:28:13;;;;;;;181.67;30.73;;;9.30;99.90;;;;;;5055264;28;20505;-76
2021/12/17 14:30:45;;;;;;;280.57;34.80;;;9.30;99.90;;;;;;5053379;28;20837;-76
2021/12/17 14:33:15;;;;;;;405.53;47.03;;;9.30;99.90;;;;;;5037304;28;20457;-76
2021/12/17 14:35:54;;;;;;;327.57;47.83;;;9.30;99.90;;;;;;5055456;28;20425;-76
2021/12/17 14:38:24;;;;;;;162.77;28.30;;;9.30;99.90;;;;;;5036776;28;20445;-76
2021/12/17 14:40:57;;;;;;;130.57;27.97;;;9.30;99.90;;;;;;5036600;28;20526;-76
2021/12/17 14:43:29;;;;;;;166.77;21.63;;;9.30;99.90;;;;;;5053940;28;20492;-76
2021/12/17 14:46:09;;;;;;;272.40;38.83;;;9.30;99.90;;;;;;5035215;28;20522;-76
2021/12/17 14:48:46;;;;;;;188.70;38.57;;;9.30;99.90;;;;;;5033742;28;20468;-76
2021/12/17 15:05:08;;;;;;;279.07;40.90;;;9.30;99.90;;;;;;5036791;28;20466;-76
2021/12/17 15:07:38;;;;;;;137.23;28.67;;;9.30;99.90;;;;;;5054567;28;20499;-76
2021/12/17 15:10:08;;;;;;;266.63;34.23;;;9.30;99.90;;;;;;5054469;28;20820;-76
2021/12/17 15:12:38;;;;;;;167.90;23.33;;;9.30;99.90;;;;;;5053849;28;20991;-76
2021/12/17 15:15:15;;;;;;;136.27;22.80;;;9.30;99.90;;;;;;5048427;28;20990;-76
2021/12/17 15:17:44;;;;;;;138.83;19.93;;;9.30;99.90;;;;;;5054386;28;20453;-76
2021/12/17 15:20:21;;;;;;;152.47;21.50;;;9.30;99.90;;;;;;5053335;28;20439;-76
2021/12/17 15:22:52;;;;;;;203.57;20.30;;;9.20;99.90;;;;;;5054307;28;20940;-76
2021/12/17 15:25:21;;;;;;;299.77;35.87;;;9.30;99.90;;;;;;5054473;28;20426;-76
2021/12/17 15:27:51;;;;;;;91.37;15.90;;;9.30;99.90;;;;;;5052760;28;20995;-76
2021/12/17 15:30:22;;;;;;;197.07;24.27;;;9.30;99.90;;;;;;5053612;28;20491;-76
2021/12/17 15:32:51;;;;;;;135.67;22.67;;;9.20;99.90;;;;;;5052880;28;20438;-76
2021/12/17 15:35:23;;;;;;;260.00;21.17;;;9.30;99.90;;;;;;5052750;28;20441;-76
2021/12/17 15:37:54;;;;;;;266.40;28.87;;;9.20;99.90;;;;;;5052658;28;20476;-75
2021/12/17 15:40:24;;;;;;;234.40;30.70;;;9.20;99.90;;;;;;5052649;28;20445;-75
2021/12/17 15:42:54;;;;;;;287.40;33.37;;;9.20;99.90;;;;;;5052971;28;20887;-76
2021/12/17 15:45:22;;;;;;;125.27;20.87;;;9.20;99.90;;;;;;5054159;28;20437;-75